sensor_id;sensor_type;location;lat;lon;timestamp;P1;durP1;ratioP1;P2;durP2;ratioP2
52742;SDS011;55583;53.012;6.556;2022-12-29T00:00:04;9.85;;;8.40;;
52742;SDS011;55583;53.012;6.556;2022-12-29T00:02:31;13.50;;;8.77;;
52742;SDS011;55583;53.012;6.556;2022-12-29T00:04:57;20.88;;;10.73;;
52742;SDS011;55583;53.012;6.556;2022-12-29T00:07:22;14.73;;;10.43;;
52742;SDS011;55583;53.012;6.556;2022-12-29T00:09:48;15.20;;;11.23;;
52742;SDS011;55583;53.012;6.556;2022-12-29T00:12:14;17.45;;;11.02;;
52742;SDS011;55583;53.012;6.556;2022-12-29T00:14:39;15.35;;;11.05;;
52742;SDS011;55583;53.012;6.556;2022-12-29T00:17:24;18.23;;;11.32;;
52742;SDS011;55583;53.012;6.556;2022-12-29T00:19:49;18.15;;;11.75;;
52742;SDS011;55583;53.012;6.556;2022-12-29T00:22:33;17.58;;;11.85;;
52742;SDS011;55583;53.012;6.556;2022-12-29T00:25:18;18.67;;;12.43;;
52742;SDS011;55583;53.012;6.556;2022-12-29T00:28:02;16.25;;;10.52;;
52742;SDS011;55583;53.012;6.556;2022-12-29T00:30:46;17.85;;;10.63;;
52742;SDS011;55583;53.012;6.556;2022-12-29T00:33:31;16.33;;;11.13;;
52742;SDS011;55583;53.012;6.556;2022-12-29T00:36:21;21.48;;;11.15;;
52742;SDS011;55583;53.012;6.556;2022-12-29T00:38:52;12.68;;;9.50;;
52742;SDS011;55583;53.012;6.556;2022-12-29T00:41:39;13.70;;;10.40;;
52742;SDS011;55583;53.012;6.556;2022-12-29T00:44:23;14.68;;;10.95;;
52742;SDS011;55583;53.012;6.556;2022-12-29T00:46:49;18.75;;;10.55;;
52742;SDS011;55583;53.012;6.556;2022-12-29T00:49:14;17.95;;;10.40;;
52742;SDS011;55583;53.012;6.556;2022-12-29T00:51:58;15.02;;;9.20;;
52742;SDS011;55583;53.012;6.556;2022-12-29T00:54:26;14.15;;;10.30;;
52742;SDS011;55583;53.012;6.556;2022-12-29T00:56:53;15.68;;;11.13;;
52742;SDS011;55583;53.012;6.556;2022-12-29T00:59:19;17.23;;;9.95;;
52742;SDS011;55583;53.012;6.556;2022-12-29T01:01:45;15.10;;;9.50;;
52742;SDS011;55583;53.012;6.556;2022-12-29T01:04:12;12.98;;;9.38;;
52742;SDS011;55583;53.012;6.556;2022-12-29T01:06:38;14.35;;;8.60;;
52742;SDS011;55583;53.012;6.556;2022-12-29T01:09:05;13.55;;;8.75;;
52742;SDS011;55583;53.012;6.556;2022-12-29T01:11:50;15.73;;;8.32;;
52742;SDS011;55583;53.012;6.556;2022-12-29T01:14:16;12.10;;;7.95;;
52742;SDS011;55583;53.012;6.556;2022-12-29T01:16:43;12.65;;;8.63;;
52742;SDS011;55583;53.012;6.556;2022-12-29T01:19:09;11.90;;;7.80;;
52742;SDS011;55583;53.012;6.556;2022-12-29T01:21:34;11.15;;;8.48;;
52742;SDS011;55583;53.012;6.556;2022-12-29T01:24:00;9.73;;;8.55;;
52742;SDS011;55583;53.012;6.556;2022-12-29T01:26:26;15.45;;;8.77;;
52742;SDS011;55583;53.012;6.556;2022-12-29T01:28:51;13.93;;;8.32;;
52742;SDS011;55583;53.012;6.556;2022-12-29T01:31:19;11.98;;;7.57;;
52742;SDS011;55583;53.012;6.556;2022-12-29T01:33:45;10.85;;;8.15;;
52742;SDS011;55583;53.012;6.556;2022-12-29T01:36:11;12.50;;;7.25;;
52742;SDS011;55583;53.012;6.556;2022-12-29T01:38:38;8.77;;;7.00;;
52742;SDS011;55583;53.012;6.556;2022-12-29T01:41:05;12.82;;;7.00;;
52742;SDS011;55583;53.012;6.556;2022-12-29T01:43:48;18.55;;;7.97;;
52742;SDS011;55583;53.012;6.556;2022-12-29T01:49:22;11.25;;;7.45;;
52742;SDS011;55583;53.012;6.556;2022-12-29T01:51:52;8.57;;;6.22;;
52742;SDS011;55583;53.012;6.556;2022-12-29T01:54:25;7.15;;;6.32;;
52742;SDS011;55583;53.012;6.556;2022-12-29T01:57:13;10.75;;;6.70;;
52742;SDS011;55583;53.012;6.556;2022-12-29T01:59:49;9.65;;;6.22;;
52742;SDS011;55583;53.012;6.556;2022-12-29T02:02:25;9.75;;;5.63;;
52742;SDS011;55583;53.012;6.556;2022-12-29T02:04:51;8.98;;;6.20;;
52742;SDS011;55583;53.012;6.556;2022-12-29T02:07:19;7.88;;;5.95;;
52742;SDS011;55583;53.012;6.556;2022-12-29T02:09:48;9.88;;;6.20;;
52742;SDS011;55583;53.012;6.556;2022-12-29T02:12:15;7.20;;;5.50;;
52742;SDS011;55583;53.012;6.556;2022-12-29T02:14:44;7.53;;;5.55;;
52742;SDS011;55583;53.012;6.556;2022-12-29T02:17:17;10.45;;;5.35;;
52742;SDS011;55583;53.012;6.556;2022-12-29T02:33:50;9.88;;;5.75;;
52742;SDS011;55583;53.012;6.556;2022-12-29T02:45:04;9.65;;;6.28;;
52742;SDS011;55583;53.012;6.556;2022-12-29T02:50:20;6.32;;;5.18;;
52742;SDS011;55583;53.012;6.556;2022-12-29T02:53:05;9.65;;;5.85;;
52742;SDS011;55583;53.012;6.556;2022-12-29T02:55:34;10.18;;;5.53;;
52742;SDS011;55583;53.012;6.556;2022-12-29T02:58:33;8.68;;;4.28;;
52742;SDS011;55583;53.012;6.556;2022-12-29T03:09:27;9.18;;;3.70;;
52742;SDS011;55583;53.012;6.556;2022-12-29T03:12:06;8.70;;;4.72;;
52742;SDS011;55583;53.012;6.556;2022-12-29T03:14:47;5.63;;;3.78;;
52742;SDS011;55583;53.012;6.556;2022-12-29T03:20:27;5.05;;;3.25;;
52742;SDS011;55583;53.012;6.556;2022-12-29T03:23:02;5.35;;;3.50;;
52742;SDS011;55583;53.012;6.556;2022-12-29T03:25:31;6.28;;;3.65;;
52742;SDS011;55583;53.012;6.556;2022-12-29T03:28:06;5.68;;;3.13;;
52742;SDS011;55583;53.012;6.556;2022-12-29T03:31:01;5.43;;;3.42;;
52742;SDS011;55583;53.012;6.556;2022-12-29T03:33:29;6.50;;;3.53;;
52742;SDS011;55583;53.012;6.556;2022-12-29T03:36:00;4.85;;;3.40;;
52742;SDS011;55583;53.012;6.556;2022-12-29T03:38:38;5.57;;;3.13;;
52742;SDS011;55583;53.012;6.556;2022-12-29T03:41:11;11.45;;;3.70;;
52742;SDS011;55583;53.012;6.556;2022-12-29T03:43:40;4.07;;;2.85;;
52742;SDS011;55583;53.012;6.556;2022-12-29T03:46:06;7.53;;;3.30;;
52742;SDS011;55583;53.012;6.556;2022-12-29T03:48:32;5.07;;;3.15;;
52742;SDS011;55583;53.012;6.556;2022-12-29T03:50:57;5.93;;;3.22;;
52742;SDS011;55583;53.012;6.556;2022-12-29T03:53:23;7.90;;;3.60;;
52742;SDS011;55583;53.012;6.556;2022-12-29T03:55:49;6.22;;;3.40;;
52742;SDS011;55583;53.012;6.556;2022-12-29T03:58:15;7.97;;;3.80;;
52742;SDS011;55583;53.012;6.556;2022-12-29T04:00:41;7.78;;;2.92;;
52742;SDS011;55583;53.012;6.556;2022-12-29T04:03:06;6.55;;;3.05;;
52742;SDS011;55583;53.012;6.556;2022-12-29T04:05:32;6.15;;;3.17;;
52742;SDS011;55583;53.012;6.556;2022-12-29T04:07:57;9.55;;;3.10;;
52742;SDS011;55583;53.012;6.556;2022-12-29T04:10:23;4.90;;;3.00;;
52742;SDS011;55583;53.012;6.556;2022-12-29T04:12:49;7.85;;;2.42;;
52742;SDS011;55583;53.012;6.556;2022-12-29T04:15:15;5.35;;;2.65;;
52742;SDS011;55583;53.012;6.556;2022-12-29T04:17:41;7.82;;;2.63;;
52742;SDS011;55583;53.012;6.556;2022-12-29T04:20:07;9.05;;;2.85;;
52742;SDS011;55583;53.012;6.556;2022-12-29T04:23:02;9.55;;;2.65;;
52742;SDS011;55583;53.012;6.556;2022-12-29T04:25:28;5.57;;;2.25;;
52742;SDS011;55583;53.012;6.556;2022-12-29T04:27:55;8.35;;;2.58;;
52742;SDS011;55583;53.012;6.556;2022-12-29T04:30:21;11.63;;;2.58;;
52742;SDS011;55583;53.012;6.556;2022-12-29T04:32:50;6.40;;;2.00;;
52742;SDS011;55583;53.012;6.556;2022-12-29T04:35:15;6.43;;;1.95;;
52742;SDS011;55583;53.012;6.556;2022-12-29T04:37:41;4.78;;;1.65;;
52742;SDS011;55583;53.012;6.556;2022-12-29T04:40:07;5.85;;;1.40;;
52742;SDS011;55583;53.012;6.556;2022-12-29T04:42:33;5.15;;;1.80;;
52742;SDS011;55583;53.012;6.556;2022-12-29T04:44:59;5.25;;;1.60;;
52742;SDS011;55583;53.012;6.556;2022-12-29T04:47:28;5.63;;;1.70;;
52742;SDS011;55583;53.012;6.556;2022-12-29T04:49:53;7.78;;;1.77;;
52742;SDS011;55583;53.012;6.556;2022-12-29T04:52:19;7.47;;;1.38;;
52742;SDS011;55583;53.012;6.556;2022-12-29T04:54:44;6.95;;;1.90;;
52742;SDS011;55583;53.012;6.556;2022-12-29T04:57:10;4.80;;;1.80;;
52742;SDS011;55583;53.012;6.556;2022-12-29T04:59:36;9.48;;;1.73;;
52742;SDS011;55583;53.012;6.556;2022-12-29T05:02:01;12.18;;;2.25;;
52742;SDS011;55583;53.012;6.556;2022-12-29T05:04:27;14.50;;;2.28;;
52742;SDS011;55583;53.012;6.556;2022-12-29T05:06:52;13.35;;;1.98;;
52742;SDS011;55583;53.012;6.556;2022-12-29T05:09:18;13.50;;;3.08;;
52742;SDS011;55583;53.012;6.556;2022-12-29T05:11:44;12.38;;;2.10;;
52742;SDS011;55583;53.012;6.556;2022-12-29T05:14:09;10.75;;;3.00;;
52742;SDS011;55583;53.012;6.556;2022-12-29T05:16:35;12.70;;;2.08;;
52742;SDS011;55583;53.012;6.556;2022-12-29T05:19:03;10.82;;;2.50;;
52742;SDS011;55583;53.012;6.556;2022-12-29T05:21:29;12.88;;;2.72;;
52742;SDS011;55583;53.012;6.556;2022-12-29T05:23:58;13.95;;;2.03;;
52742;SDS011;55583;53.012;6.556;2022-12-29T05:26:23;10.63;;;2.90;;
52742;SDS011;55583;53.012;6.556;2022-12-29T05:28:49;9.85;;;2.13;;
52742;SDS011;55583;53.012;6.556;2022-12-29T05:31:14;14.68;;;2.80;;
52742;SDS011;55583;53.012;6.556;2022-12-29T05:33:40;12.40;;;2.53;;
52742;SDS011;55583;53.012;6.556;2022-12-29T05:36:06;14.77;;;2.92;;
52742;SDS011;55583;53.012;6.556;2022-12-29T05:38:33;17.83;;;2.92;;
52742;SDS011;55583;53.012;6.556;2022-12-29T05:41:02;12.50;;;2.72;;
52742;SDS011;55583;53.012;6.556;2022-12-29T05:43:28;9.70;;;2.70;;
52742;SDS011;55583;53.012;6.556;2022-12-29T05:45:53;24.13;;;3.00;;
52742;SDS011;55583;53.012;6.556;2022-12-29T05:48:23;15.95;;;2.65;;
52742;SDS011;55583;53.012;6.556;2022-12-29T05:50:49;14.88;;;3.20;;
52742;SDS011;55583;53.012;6.556;2022-12-29T05:53:16;18.25;;;2.53;;
52742;SDS011;55583;53.012;6.556;2022-12-29T05:55:42;14.48;;;2.55;;
52742;SDS011;55583;53.012;6.556;2022-12-29T05:58:08;19.00;;;2.50;;
52742;SDS011;55583;53.012;6.556;2022-12-29T06:00:34;18.52;;;2.67;;
52742;SDS011;55583;53.012;6.556;2022-12-29T06:03:00;14.60;;;2.22;;
52742;SDS011;55583;53.012;6.556;2022-12-29T06:05:28;14.90;;;2.17;;
52742;SDS011;55583;53.012;6.556;2022-12-29T06:07:54;11.30;;;3.00;;
52742;SDS011;55583;53.012;6.556;2022-12-29T06:10:19;16.42;;;3.22;;
52742;SDS011;55583;53.012;6.556;2022-12-29T06:12:45;11.38;;;2.50;;
52742;SDS011;55583;53.012;6.556;2022-12-29T06:15:12;11.80;;;2.25;;
52742;SDS011;55583;53.012;6.556;2022-12-29T06:17:38;13.38;;;2.25;;
52742;SDS011;55583;53.012;6.556;2022-12-29T06:20:04;9.35;;;1.83;;
52742;SDS011;55583;53.012;6.556;2022-12-29T06:22:30;10.20;;;2.40;;
52742;SDS011;55583;53.012;6.556;2022-12-29T06:24:56;11.27;;;2.08;;
52742;SDS011;55583;53.012;6.556;2022-12-29T06:27:21;17.63;;;2.80;;
52742;SDS011;55583;53.012;6.556;2022-12-29T06:29:47;17.55;;;2.60;;
52742;SDS011;55583;53.012;6.556;2022-12-29T06:32:14;9.65;;;1.85;;
52742;SDS011;55583;53.012;6.556;2022-12-29T06:34:40;16.80;;;3.08;;
52742;SDS011;55583;53.012;6.556;2022-12-29T06:37:06;19.02;;;2.88;;
52742;SDS011;55583;53.012;6.556;2022-12-29T06:39:32;14.23;;;2.42;;
52742;SDS011;55583;53.012;6.556;2022-12-29T06:41:57;17.77;;;2.20;;
52742;SDS011;55583;53.012;6.556;2022-12-29T06:44:23;14.60;;;2.42;;
52742;SDS011;55583;53.012;6.556;2022-12-29T06:46:50;12.20;;;2.30;;
52742;SDS011;55583;53.012;6.556;2022-12-29T06:49:16;17.27;;;3.08;;
52742;SDS011;55583;53.012;6.556;2022-12-29T06:51:42;19.35;;;3.15;;
52742;SDS011;55583;53.012;6.556;2022-12-29T06:54:07;21.50;;;3.10;;
52742;SDS011;55583;53.012;6.556;2022-12-29T06:56:33;8.65;;;2.15;;
52742;SDS011;55583;53.012;6.556;2022-12-29T06:58:59;17.90;;;2.88;;
52742;SDS011;55583;53.012;6.556;2022-12-29T07:01:27;22.42;;;3.92;;
52742;SDS011;55583;53.012;6.556;2022-12-29T07:03:53;18.58;;;3.53;;
52742;SDS011;55583;53.012;6.556;2022-12-29T07:06:18;18.83;;;3.03;;
52742;SDS011;55583;53.012;6.556;2022-12-29T07:08:44;18.98;;;2.65;;
52742;SDS011;55583;53.012;6.556;2022-12-29T07:11:09;13.98;;;3.17;;
52742;SDS011;55583;53.012;6.556;2022-12-29T07:13:35;12.43;;;2.85;;
52742;SDS011;55583;53.012;6.556;2022-12-29T07:16:08;17.42;;;2.42;;
52742;SDS011;55583;53.012;6.556;2022-12-29T07:18:34;16.88;;;2.88;;
52742;SDS011;55583;53.012;6.556;2022-12-29T07:21:00;22.35;;;3.42;;
52742;SDS011;55583;53.012;6.556;2022-12-29T07:23:26;15.32;;;3.05;;
52742;SDS011;55583;53.012;6.556;2022-12-29T07:26:02;20.30;;;3.20;;
52742;SDS011;55583;53.012;6.556;2022-12-29T07:28:29;18.48;;;3.85;;
52742;SDS011;55583;53.012;6.556;2022-12-29T07:30:56;22.90;;;3.28;;
52742;SDS011;55583;53.012;6.556;2022-12-29T07:33:21;15.43;;;2.95;;
52742;SDS011;55583;53.012;6.556;2022-12-29T07:35:47;18.83;;;2.90;;
52742;SDS011;55583;53.012;6.556;2022-12-29T07:38:13;20.55;;;3.22;;
52742;SDS011;55583;53.012;6.556;2022-12-29T07:40:38;16.05;;;3.08;;
52742;SDS011;55583;53.012;6.556;2022-12-29T07:43:04;15.68;;;3.58;;
52742;SDS011;55583;53.012;6.556;2022-12-29T07:45:30;13.05;;;2.13;;
52742;SDS011;55583;53.012;6.556;2022-12-29T07:47:58;13.43;;;2.80;;
52742;SDS011;55583;53.012;6.556;2022-12-29T07:50:24;22.02;;;3.03;;
52742;SDS011;55583;53.012;6.556;2022-12-29T07:55:35;11.35;;;2.38;;
52742;SDS011;55583;53.012;6.556;2022-12-29T07:58:01;17.48;;;2.75;;
52742;SDS011;55583;53.012;6.556;2022-12-29T08:00:26;23.42;;;3.00;;
52742;SDS011;55583;53.012;6.556;2022-12-29T08:02:52;18.85;;;2.92;;
52742;SDS011;55583;53.012;6.556;2022-12-29T08:05:18;17.52;;;3.45;;
52742;SDS011;55583;53.012;6.556;2022-12-29T08:07:43;18.92;;;2.88;;
52742;SDS011;55583;53.012;6.556;2022-12-29T08:10:10;21.42;;;3.40;;
52742;SDS011;55583;53.012;6.556;2022-12-29T08:12:39;20.15;;;2.85;;
52742;SDS011;55583;53.012;6.556;2022-12-29T08:15:06;16.83;;;2.53;;
52742;SDS011;55583;53.012;6.556;2022-12-29T08:17:33;27.65;;;3.47;;
52742;SDS011;55583;53.012;6.556;2022-12-29T08:20:01;15.50;;;2.92;;
52742;SDS011;55583;53.012;6.556;2022-12-29T08:22:27;22.25;;;3.70;;
52742;SDS011;55583;53.012;6.556;2022-12-29T08:24:53;16.00;;;2.58;;
52742;SDS011;55583;53.012;6.556;2022-12-29T08:27:19;26.52;;;3.83;;
52742;SDS011;55583;53.012;6.556;2022-12-29T08:29:44;19.33;;;2.78;;
52742;SDS011;55583;53.012;6.556;2022-12-29T08:32:10;19.30;;;3.45;;
52742;SDS011;55583;53.012;6.556;2022-12-29T08:34:36;19.40;;;3.05;;
52742;SDS011;55583;53.012;6.556;2022-12-29T08:37:02;26.55;;;3.90;;
52742;SDS011;55583;53.012;6.556;2022-12-29T08:39:27;19.35;;;2.78;;
52742;SDS011;55583;53.012;6.556;2022-12-29T08:41:53;20.90;;;3.65;;
52742;SDS011;55583;53.012;6.556;2022-12-29T08:44:19;31.02;;;3.65;;
52742;SDS011;55583;53.012;6.556;2022-12-29T08:46:45;25.20;;;3.70;;
52742;SDS011;55583;53.012;6.556;2022-12-29T08:49:10;20.70;;;3.47;;
52742;SDS011;55583;53.012;6.556;2022-12-29T08:51:36;21.38;;;3.83;;
52742;SDS011;55583;53.012;6.556;2022-12-29T08:54:02;37.50;;;5.97;;
52742;SDS011;55583;53.012;6.556;2022-12-29T08:56:30;23.63;;;3.15;;
52742;SDS011;55583;53.012;6.556;2022-12-29T08:58:56;19.67;;;3.45;;
52742;SDS011;55583;53.012;6.556;2022-12-29T09:01:22;20.10;;;3.33;;
52742;SDS011;55583;53.012;6.556;2022-12-29T09:03:48;20.70;;;3.92;;
52742;SDS011;55583;53.012;6.556;2022-12-29T09:06:14;23.77;;;4.65;;
52742;SDS011;55583;53.012;6.556;2022-12-29T09:08:41;13.73;;;3.28;;
52742;SDS011;55583;53.012;6.556;2022-12-29T09:11:11;31.48;;;3.42;;
52742;SDS011;55583;53.012;6.556;2022-12-29T09:13:40;26.75;;;3.72;;
52742;SDS011;55583;53.012;6.556;2022-12-29T09:16:06;30.52;;;4.32;;
52742;SDS011;55583;53.012;6.556;2022-12-29T09:18:32;29.45;;;3.55;;
52742;SDS011;55583;53.012;6.556;2022-12-29T09:21:02;19.85;;;3.80;;
52742;SDS011;55583;53.012;6.556;2022-12-29T09:23:29;20.92;;;4.53;;
52742;SDS011;55583;53.012;6.556;2022-12-29T09:25:55;18.10;;;3.65;;
52742;SDS011;55583;53.012;6.556;2022-12-29T09:28:21;27.38;;;3.67;;
52742;SDS011;55583;53.012;6.556;2022-12-29T09:30:47;25.05;;;3.05;;
52742;SDS011;55583;53.012;6.556;2022-12-29T09:33:13;18.48;;;3.40;;
52742;SDS011;55583;53.012;6.556;2022-12-29T09:35:43;24.23;;;4.43;;
52742;SDS011;55583;53.012;6.556;2022-12-29T09:38:09;21.98;;;2.83;;
52742;SDS011;55583;53.012;6.556;2022-12-29T09:40:35;20.67;;;3.47;;
52742;SDS011;55583;53.012;6.556;2022-12-29T09:43:04;26.25;;;3.33;;
52742;SDS011;55583;53.012;6.556;2022-12-29T09:45:42;17.27;;;2.88;;
52742;SDS011;55583;53.012;6.556;2022-12-29T09:50:43;15.68;;;3.10;;
52742;SDS011;55583;53.012;6.556;2022-12-29T09:55:58;20.77;;;3.75;;
52742;SDS011;55583;53.012;6.556;2022-12-29T10:01:09;25.80;;;4.18;;
52742;SDS011;55583;53.012;6.556;2022-12-29T10:04:03;19.58;;;3.25;;
52742;SDS011;55583;53.012;6.556;2022-12-29T10:09:13;21.00;;;2.85;;
52742;SDS011;55583;53.012;6.556;2022-12-29T10:22:54;48.28;;;4.85;;
52742;SDS011;55583;53.012;6.556;2022-12-29T10:25:42;24.60;;;3.78;;
52742;SDS011;55583;53.012;6.556;2022-12-29T10:28:19;24.88;;;3.60;;
52742;SDS011;55583;53.012;6.556;2022-12-29T10:30:47;20.45;;;3.15;;
52742;SDS011;55583;53.012;6.556;2022-12-29T10:33:18;16.50;;;3.08;;
52742;SDS011;55583;53.012;6.556;2022-12-29T10:35:48;35.72;;;4.07;;
52742;SDS011;55583;53.012;6.556;2022-12-29T10:43:45;22.25;;;4.15;;
52742;SDS011;55583;53.012;6.556;2022-12-29T10:46:23;14.82;;;3.88;;
52742;SDS011;55583;53.012;6.556;2022-12-29T10:48:52;20.05;;;3.05;;
52742;SDS011;55583;53.012;6.556;2022-12-29T10:51:22;26.50;;;4.35;;
52742;SDS011;55583;53.012;6.556;2022-12-29T10:56:33;21.92;;;3.35;;
52742;SDS011;55583;53.012;6.556;2022-12-29T11:01:41;15.45;;;2.75;;
52742;SDS011;55583;53.012;6.556;2022-12-29T11:06:53;15.95;;;3.22;;
52742;SDS011;55583;53.012;6.556;2022-12-29T11:09:22;13.20;;;3.08;;
52742;SDS011;55583;53.012;6.556;2022-12-29T11:11:52;25.92;;;3.95;;
52742;SDS011;55583;53.012;6.556;2022-12-29T11:14:18;17.67;;;3.70;;
52742;SDS011;55583;53.012;6.556;2022-12-29T11:16:56;33.65;;;3.78;;
52742;SDS011;55583;53.012;6.556;2022-12-29T11:19:31;20.13;;;3.72;;
52742;SDS011;55583;53.012;6.556;2022-12-29T11:22:12;22.98;;;3.65;;
52742;SDS011;55583;53.012;6.556;2022-12-29T11:24:50;15.95;;;3.03;;
52742;SDS011;55583;53.012;6.556;2022-12-29T11:27:26;24.20;;;3.53;;
52742;SDS011;55583;53.012;6.556;2022-12-29T11:29:52;21.30;;;3.72;;
52742;SDS011;55583;53.012;6.556;2022-12-29T11:32:20;18.33;;;3.45;;
52742;SDS011;55583;53.012;6.556;2022-12-29T11:34:47;19.23;;;3.60;;
52742;SDS011;55583;53.012;6.556;2022-12-29T11:37:36;27.02;;;3.97;;
52742;SDS011;55583;53.012;6.556;2022-12-29T11:40:06;26.08;;;3.88;;
52742;SDS011;55583;53.012;6.556;2022-12-29T11:42:47;28.98;;;5.03;;
52742;SDS011;55583;53.012;6.556;2022-12-29T11:45:25;27.10;;;4.13;;
52742;SDS011;55583;53.012;6.556;2022-12-29T11:47:56;29.17;;;4.35;;
52742;SDS011;55583;53.012;6.556;2022-12-29T11:50:41;35.38;;;6.82;;
52742;SDS011;55583;53.012;6.556;2022-12-29T11:58:41;18.60;;;4.22;;
52742;SDS011;55583;53.012;6.556;2022-12-29T12:03:48;31.02;;;4.43;;
52742;SDS011;55583;53.012;6.556;2022-12-29T12:06:22;29.48;;;4.60;;
52742;SDS011;55583;53.012;6.556;2022-12-29T12:08:56;35.63;;;5.18;;
52742;SDS011;55583;53.012;6.556;2022-12-29T12:11:29;41.25;;;4.75;;
52742;SDS011;55583;53.012;6.556;2022-12-29T12:14:02;19.95;;;3.75;;
52742;SDS011;55583;53.012;6.556;2022-12-29T12:16:40;34.03;;;5.45;;
52742;SDS011;55583;53.012;6.556;2022-12-29T12:21:43;27.35;;;4.63;;
52742;SDS011;55583;53.012;6.556;2022-12-29T12:29:52;25.08;;;4.55;;
52742;SDS011;55583;53.012;6.556;2022-12-29T12:35:35;31.60;;;5.30;;
52742;SDS011;55583;53.012;6.556;2022-12-29T12:38:34;28.65;;;5.25;;
52742;SDS011;55583;53.012;6.556;2022-12-29T12:41:13;24.33;;;5.18;;
52742;SDS011;55583;53.012;6.556;2022-12-29T12:49:39;26.40;;;5.57;;
52742;SDS011;55583;53.012;6.556;2022-12-29T12:52:48;24.58;;;5.18;;
52742;SDS011;55583;53.012;6.556;2022-12-29T13:01:16;31.23;;;5.60;;
52742;SDS011;55583;53.012;6.556;2022-12-29T13:06:54;25.52;;;5.07;;
52742;SDS011;55583;53.012;6.556;2022-12-29T13:09:44;23.38;;;3.50;;
52742;SDS011;55583;53.012;6.556;2022-12-29T13:15:29;26.75;;;3.63;;
52742;SDS011;55583;53.012;6.556;2022-12-29T13:20:48;24.85;;;4.00;;
52742;SDS011;55583;53.012;6.556;2022-12-29T13:23:32;17.67;;;3.30;;
52742;SDS011;55583;53.012;6.556;2022-12-29T13:28:50;24.83;;;4.30;;
52742;SDS011;55583;53.012;6.556;2022-12-29T13:34:02;16.65;;;4.38;;
52742;SDS011;55583;53.012;6.556;2022-12-29T13:36:43;17.52;;;3.53;;
52742;SDS011;55583;53.012;6.556;2022-12-29T13:39:19;16.42;;;3.53;;
52742;SDS011;55583;53.012;6.556;2022-12-29T13:41:53;11.00;;;2.85;;
52742;SDS011;55583;53.012;6.556;2022-12-29T13:44:25;19.75;;;3.08;;
52742;SDS011;55583;53.012;6.556;2022-12-29T13:47:02;21.85;;;2.95;;
52742;SDS011;55583;53.012;6.556;2022-12-29T13:49:36;19.58;;;2.78;;
52742;SDS011;55583;53.012;6.556;2022-12-29T13:52:13;14.95;;;2.53;;
52742;SDS011;55583;53.012;6.556;2022-12-29T13:57:51;19.45;;;3.08;;
52742;SDS011;55583;53.012;6.556;2022-12-29T14:00:37;19.27;;;2.80;;
52742;SDS011;55583;53.012;6.556;2022-12-29T14:03:24;14.93;;;3.35;;
52742;SDS011;55583;53.012;6.556;2022-12-29T14:06:10;14.38;;;3.60;;
52742;SDS011;55583;53.012;6.556;2022-12-29T14:08:44;23.10;;;4.05;;
52742;SDS011;55583;53.012;6.556;2022-12-29T14:11:10;19.38;;;4.38;;
52742;SDS011;55583;53.012;6.556;2022-12-29T14:13:39;20.95;;;3.75;;
52742;SDS011;55583;53.012;6.556;2022-12-29T14:16:12;14.77;;;3.15;;
52742;SDS011;55583;53.012;6.556;2022-12-29T14:18:51;25.23;;;4.72;;
52742;SDS011;55583;53.012;6.556;2022-12-29T14:21:20;19.40;;;4.20;;
52742;SDS011;55583;53.012;6.556;2022-12-29T14:23:48;22.55;;;3.13;;
52742;SDS011;55583;53.012;6.556;2022-12-29T14:28:53;22.33;;;3.00;;
52742;SDS011;55583;53.012;6.556;2022-12-29T14:36:42;22.60;;;4.82;;
52742;SDS011;55583;53.012;6.556;2022-12-29T14:39:45;16.55;;;3.13;;
52742;SDS011;55583;53.012;6.556;2022-12-29T14:44:49;15.98;;;3.22;;
52742;SDS011;55583;53.012;6.556;2022-12-29T14:47:32;17.60;;;3.03;;
52742;SDS011;55583;53.012;6.556;2022-12-29T14:50:05;19.63;;;3.55;;
52742;SDS011;55583;53.012;6.556;2022-12-29T14:52:32;18.75;;;4.15;;
52742;SDS011;55583;53.012;6.556;2022-12-29T14:57:33;22.60;;;3.63;;
52742;SDS011;55583;53.012;6.556;2022-12-29T15:02:38;14.27;;;3.33;;
52742;SDS011;55583;53.012;6.556;2022-12-29T15:05:24;17.55;;;4.18;;
52742;SDS011;55583;53.012;6.556;2022-12-29T15:08:12;13.43;;;4.22;;
52742;SDS011;55583;53.012;6.556;2022-12-29T15:10:58;16.23;;;3.65;;
52742;SDS011;55583;53.012;6.556;2022-12-29T15:13:39;8.75;;;3.20;;
52742;SDS011;55583;53.012;6.556;2022-12-29T15:18:58;13.52;;;2.85;;
52742;SDS011;55583;53.012;6.556;2022-12-29T15:21:34;20.60;;;3.65;;
52742;SDS011;55583;53.012;6.556;2022-12-29T15:24:00;21.42;;;3.70;;
52742;SDS011;55583;53.012;6.556;2022-12-29T15:26:37;19.42;;;3.30;;
52742;SDS011;55583;53.012;6.556;2022-12-29T15:29:05;19.10;;;3.38;;
52742;SDS011;55583;53.012;6.556;2022-12-29T15:31:50;15.45;;;3.50;;
52742;SDS011;55583;53.012;6.556;2022-12-29T15:34:16;15.57;;;3.33;;
52742;SDS011;55583;53.012;6.556;2022-12-29T15:36:46;15.48;;;3.17;;
52742;SDS011;55583;53.012;6.556;2022-12-29T15:39:19;20.10;;;3.60;;
52742;SDS011;55583;53.012;6.556;2022-12-29T15:44:45;14.85;;;3.33;;
52742;SDS011;55583;53.012;6.556;2022-12-29T15:47:14;16.65;;;3.30;;
52742;SDS011;55583;53.012;6.556;2022-12-29T15:49:42;25.30;;;5.82;;
52742;SDS011;55583;53.012;6.556;2022-12-29T15:52:08;17.08;;;4.38;;
52742;SDS011;55583;53.012;6.556;2022-12-29T15:54:34;22.98;;;3.42;;
52742;SDS011;55583;53.012;6.556;2022-12-29T15:57:04;18.40;;;3.42;;
52742;SDS011;55583;53.012;6.556;2022-12-29T15:59:48;15.85;;;3.00;;
52742;SDS011;55583;53.012;6.556;2022-12-29T16:02:14;18.27;;;4.10;;
52742;SDS011;55583;53.012;6.556;2022-12-29T16:04:40;24.50;;;4.05;;
52742;SDS011;55583;53.012;6.556;2022-12-29T16:09:57;12.15;;;3.15;;
52742;SDS011;55583;53.012;6.556;2022-12-29T16:12:26;17.63;;;3.55;;
52742;SDS011;55583;53.012;6.556;2022-12-29T16:14:56;16.65;;;4.25;;
52742;SDS011;55583;53.012;6.556;2022-12-29T16:17:25;28.92;;;4.75;;
52742;SDS011;55583;53.012;6.556;2022-12-29T16:19:58;18.05;;;4.25;;
52742;SDS011;55583;53.012;6.556;2022-12-29T16:22:33;23.42;;;4.25;;
52742;SDS011;55583;53.012;6.556;2022-12-29T16:25:02;19.92;;;3.85;;
52742;SDS011;55583;53.012;6.556;2022-12-29T16:27:37;21.17;;;4.00;;
52742;SDS011;55583;53.012;6.556;2022-12-29T16:30:07;23.25;;;4.82;;
52742;SDS011;55583;53.012;6.556;2022-12-29T16:32:49;21.08;;;3.63;;
52742;SDS011;55583;53.012;6.556;2022-12-29T16:35:18;18.08;;;3.55;;
52742;SDS011;55583;53.012;6.556;2022-12-29T16:37:45;19.88;;;4.15;;
52742;SDS011;55583;53.012;6.556;2022-12-29T16:42:47;19.05;;;4.28;;
52742;SDS011;55583;53.012;6.556;2022-12-29T16:48:09;28.15;;;5.32;;
52742;SDS011;55583;53.012;6.556;2022-12-29T16:50:35;13.13;;;2.85;;
52742;SDS011;55583;53.012;6.556;2022-12-29T16:53:04;16.33;;;3.80;;
52742;SDS011;55583;53.012;6.556;2022-12-29T16:55:35;16.38;;;3.47;;
52742;SDS011;55583;53.012;6.556;2022-12-29T16:58:04;10.00;;;3.53;;
52742;SDS011;55583;53.012;6.556;2022-12-29T17:00:31;13.25;;;3.33;;
52742;SDS011;55583;53.012;6.556;2022-12-29T17:03:00;8.20;;;2.65;;
52742;SDS011;55583;53.012;6.556;2022-12-29T17:05:26;9.15;;;2.00;;
52742;SDS011;55583;53.012;6.556;2022-12-29T17:07:52;6.72;;;1.48;;
52742;SDS011;55583;53.012;6.556;2022-12-29T17:10:17;4.85;;;2.10;;
52742;SDS011;55583;53.012;6.556;2022-12-29T17:12:44;4.78;;;1.30;;
52742;SDS011;55583;53.012;6.556;2022-12-29T17:15:20;9.00;;;1.92;;
52742;SDS011;55583;53.012;6.556;2022-12-29T17:17:51;5.65;;;1.50;;
52742;SDS011;55583;53.012;6.556;2022-12-29T17:20:23;6.60;;;1.40;;
52742;SDS011;55583;53.012;6.556;2022-12-29T17:22:53;12.10;;;2.10;;
52742;SDS011;55583;53.012;6.556;2022-12-29T17:25:20;6.25;;;1.88;;
52742;SDS011;55583;53.012;6.556;2022-12-29T17:27:49;12.60;;;1.63;;
52742;SDS011;55583;53.012;6.556;2022-12-29T17:30:24;16.80;;;2.97;;